Lihue Airport Lihue US
ICAO: PHLI
IATA:
Category: Medium
Scheduled Services:

Elevation: 153 ft
TransAlt. 18000 ft.

Airport Communications:
ATIS:127.2
HONOLULU CNTR:126.5
CTAF:118.9
GND:121.9
HONOLULU:122.6
TWR:118.9

PHLI Zoom In..

If you have problems with the map follow the link
https://www.worldairports.se/pages/airport.php?
ICAO=PHLI

Runways:

(A) RW 03 length 6500 ft width 150 ft
---- / hdg 34

(B) RW 17 length 6500 ft width 150 ft
---- / hdg 169

(C) RW 21 length 6500 ft width 150 ft
---- / hdg 214

(D) RW 35 length 6500 ft width 150 ft
ILS 110.90 / hdg 349

Location; PHLI
Day. 25 / Time. 23.53 Zulu
* Altimeter: 30.10
* Temperature: 26° c. 78.8°f.
* Wind from: 060° Speed 09 kn.
Dewpoint: 21° c.
Visibility: 10 Statute Miles.
Clouds: Scattered 2000 ft.

PHLI 252353Z 06009KT 10SM SCT020 26/21 A3010 RMK AO2 SLP190 60000 T025


Wind From 060°
Speed 09 kn.

 
 
jpsmedia worldairports.se 2020   terms of use